Observation data for Spur on 05/24/2020      Previous  Date  Next       Current Mesonet Observations  Soil Data  Daily Summary Page  Observations in Plain Language
KSP1 240500Z 16007KT 19/13 A2982 RMK A01 T01890131  RH  072%=      5-min Rain = 0
KSP1 240505Z 17006KT 19/13 A2982 RMK A01 T01900130  RH  071%=      5-min Rain = 0
KSP1 240510Z 17005G10KT 19/13 A2982 RMK A01 T01890131  RH  072%=      5-min Rain = 0
KSP1 240515Z 18005KT 19/13 A2982 RMK A01 T01870134  RH  074%=      5-min Rain = 0
KSP1 240520Z 16005KT 19/13 A2982 RMK A01 T01850134  RH  076%=      5-min Rain = 0
KSP1 240525Z 16006KT 18/13 A2982 RMK A01 T01840134  RH  076%=      5-min Rain = 0
KSP1 240530Z 16006KT 18/14 A2982 RMK A01 T01820135  RH  077%=      5-min Rain = 0
KSP1 240535Z 17007KT 18/14 A2982 RMK A01 T01800136  RH  079%=      5-min Rain = 0
KSP1 240540Z 18006KT 18/14 A2982 RMK A01 T01790137  RH  080%=      5-min Rain = 0
KSP1 240545Z 18005KT 18/14 A2983 RMK A01 T01780138  RH  081%=      5-min Rain = 0
KSP1 240550Z 19005KT 18/14 A2983 RMK A01 T01760139  RH  082%=      5-min Rain = 0
KSP1 240555Z 19004KT 18/14 A2983 RMK A01 T01750140  RH  083%=      5-min Rain = 0
KSP1 240600Z 19004KT 17/14 A2982 RMK A01 T01740139  RH  084%=      5-min Rain = 0
KSP1 240605Z 18004KT 17/14 A2982 RMK A01 T01740139  RH  084%=      5-min Rain = 0
KSP1 240610Z 20003KT 17/14 A2982 RMK A01 T01730140  RH  084%=      5-min Rain = 0
KSP1 240615Z 21003KT 17/14 A2983 RMK A01 T01720141  RH  086%=      5-min Rain = 0
KSP1 240620Z 22003KT 17/14 A2982 RMK A01 T01710142  RH  087%=      5-min Rain = 0
KSP1 240625Z 23003KT 17/14 A2983 RMK A01 T01710142  RH  086%=      5-min Rain = 0
KSP1 240630Z 23003KT 17/14 A2983 RMK A01 T01700141  RH  087%=      5-min Rain = 0
KSP1 240635Z 24003KT 17/14 A2983 RMK A01 T01680140  RH  087%=      5-min Rain = 0
KSP1 240640Z 23004KT 17/14 A2983 RMK A01 T01680140  RH  087%=      5-min Rain = 0
KSP1 240645Z 23004KT 17/14 A2983 RMK A01 T01680141  RH  087%=      5-min Rain = 0
KSP1 240650Z 23003KT 17/14 A2983 RMK A01 T01680140  RH  087%=      5-min Rain = 0
KSP1 240655Z 23003KT 17/14 A2984 RMK A01 T01670140  RH  088%=      5-min Rain = 0
KSP1 240700Z 24001KT 17/14 A2984 RMK A01 T01670140  RH  088%=      5-min Rain = 0
KSP1 240705Z 31002KT 17/14 A2984 RMK A01 T01660140  RH  088%=      5-min Rain = 0
KSP1 240710Z 30003KT 17/14 A2983 RMK A01 T01650141  RH  090%=      5-min Rain = 0
KSP1 240715Z 30002KT 16/14 A2983 RMK A01 T01640142  RH  090%=      5-min Rain = 0
KSP1 240720Z 26003KT 16/14 A2983 RMK A01 T01640142  RH  090%=      5-min Rain = 0
KSP1 240725Z 26004KT 16/14 A2983 RMK A01 T01640141  RH  090%=      5-min Rain = 0
KSP1 240730Z 24003KT 16/14 A2983 RMK A01 T01640140  RH  090%=      5-min Rain = 0
KSP1 240735Z 22003KT 16/14 A2984 RMK A01 T01640140  RH  089%=      5-min Rain = 0
KSP1 240740Z 23003KT 16/14 A2984 RMK A01 T01600138  RH  090%=      5-min Rain = 0
KSP1 240745Z 20003KT 16/14 A2984 RMK A01 T01600139  RH  091%=      5-min Rain = 0
KSP1 240750Z 22003KT 16/14 A2984 RMK A01 T01610140  RH  091%=      5-min Rain = 0
KSP1 240755Z 20002KT 16/14 A2984 RMK A01 T01620140  RH  091%=      5-min Rain = 0
KSP1 240800Z 23003KT 16/14 A2984 RMK A01 T01630140  RH  090%=      5-min Rain = 0
KSP1 240805Z 21003KT 16/14 A2983 RMK A01 T01640140  RH  089%=      5-min Rain = 0
KSP1 240810Z 23003KT 16/14 A2984 RMK A01 T01640139  RH  089%=      5-min Rain = 0
KSP1 240815Z 24003KT 17/14 A2984 RMK A01 T01650138  RH  087%=      5-min Rain = 0
KSP1 240820Z 24003KT 17/14 A2984 RMK A01 T01660137  RH  086%=      5-min Rain = 0
KSP1 240825Z 23003KT 17/14 A2984 RMK A01 T01660136  RH  086%=      5-min Rain = 0
KSP1 240830Z 20003KT 17/14 A2983 RMK A01 T01670135  RH  085%=      5-min Rain = 0
KSP1 240835Z 23003KT 17/14 A2983 RMK A01 T01670135  RH  085%=      5-min Rain = 0
KSP1 240840Z 20002KT 17/14 A2983 RMK A01 T01660135  RH  085%=      5-min Rain = 0
KSP1 240845Z 21003KT 17/14 A2983 RMK A01 T01670135  RH  085%=      5-min Rain = 0
KSP1 240850Z 22002KT 17/14 A2983 RMK A01 T01670135  RH  085%=      5-min Rain = 0
KSP1 240855Z 21002KT 17/13 A2983 RMK A01 T01670134  RH  085%=      5-min Rain = 0
KSP1 240900Z 22001KT 17/13 A2983 RMK A01 T01670134  RH  084%=      5-min Rain = 0
KSP1 240905Z 18001KT 17/13 A2983 RMK A01 T01680134  RH  084%=      5-min Rain = 0
KSP1 240910Z 19001KT 17/13 A2983 RMK A01 T01680133  RH  083%=      5-min Rain = 0
KSP1 240915Z 20002KT 17/14 A2983 RMK A01 T01680137  RH  085%=      5-min Rain = 0
KSP1 240920Z 20002KT 17/14 A2983 RMK A01 T01670138  RH  087%=      5-min Rain = 0
KSP1 240925Z 21002KT 16/14 A2983 RMK A01 T01640136  RH  087%=      5-min Rain = 0
KSP1 240930Z 21003KT 16/14 A2983 RMK A01 T01620136  RH  088%=      5-min Rain = 0
KSP1 240935Z 21003KT 16/14 A2983 RMK A01 T01610136  RH  089%=      5-min Rain = 0
KSP1 240940Z 20002KT 16/13 A2983 RMK A01 T01590134  RH  089%=      5-min Rain = 0
KSP1 240945Z 21001KT 16/13 A2984 RMK A01 T01590133  RH  088%=      5-min Rain = 0
KSP1 240950Z 24001KT 16/14 A2984 RMK A01 T01600135  RH  089%=      5-min Rain = 0
KSP1 240955Z 24001KT 16/14 A2984 RMK A01 T01610137  RH  090%=      5-min Rain = 0
KSP1 241000Z 23001KT 16/14 A2984 RMK A01 T01590137  RH  090%=      5-min Rain = 0
KSP1 241005Z 21002KT 16/14 A2984 RMK A01 T01590138  RH  091%=      5-min Rain = 0
KSP1 241010Z 21003KT 16/14 A2984 RMK A01 T01590135  RH  089%=      5-min Rain = 0
KSP1 241015Z 20003KT 16/13 A2984 RMK A01 T01590132  RH  088%=      5-min Rain = 0
KSP1 241020Z 18003KT 16/13 A2984 RMK A01 T01560130  RH  088%=      5-min Rain = 0
KSP1 241025Z 18002KT 16/13 A2984 RMK A01 T01560130  RH  088%=      5-min Rain = 0
KSP1 241030Z 19001KT 16/13 A2983 RMK A01 T01560131  RH  088%=      5-min Rain = 0
KSP1 241035Z 18001KT 16/13 A2983 RMK A01 T01550131  RH  089%=      5-min Rain = 0
KSP1 241040Z 19000KT 16/13 A2983 RMK A01 T01560134  RH  090%=      5-min Rain = 0
KSP1 241045Z 27000KT 15/13 A2983 RMK A01 T01540133  RH  091%=      5-min Rain = 0
KSP1 241050Z 31002KT 15/13 A2983 RMK A01 T01500132  RH  092%=      5-min Rain = 0
KSP1 241055Z 31003KT 15/13 A2982 RMK A01 T01500133  RH  093%=      5-min Rain = 0
KSP1 241100Z 31002KT 15/13 A2983 RMK A01 T01500133  RH  093%=      5-min Rain = 0
KSP1 241105Z 26001KT 15/13 A2983 RMK A01 T01490132  RH  093%=      5-min Rain = 0
KSP1 241110Z 27001KT 15/13 A2983 RMK A01 T01500133  RH  093%=      5-min Rain = 0
KSP1 241115Z 28001KT 15/13 A2982 RMK A01 T01500134  RH  094%=      5-min Rain = 0
KSP1 241120Z 29002KT 15/13 A2983 RMK A01 T01510134  RH  094%=      5-min Rain = 0
KSP1 241125Z 29002KT 15/13 A2983 RMK A01 T01500134  RH  094%=      5-min Rain = 0
KSP1 241130Z 29001KT 15/13 A2983 RMK A01 T01500134  RH  094%=      5-min Rain = 0
KSP1 241135Z 29000KT 15/13 A2983 RMK A01 T01500134  RH  094%=      5-min Rain = 0
KSP1 241140Z 27000KT 15/14 A2983 RMK A01 T01510136  RH  094%=      5-min Rain = 0
KSP1 241145Z 25000KT 15/14 A2984 RMK A01 T01510135  RH  094%=      5-min Rain = 0
KSP1 241150Z 22000KT 15/14 A2984 RMK A01 T01500135  RH  094%=      5-min Rain = 0
KSP1 241155Z 00000KT 15/14 A2984 RMK A01 T01500135  RH  095%=      5-min Rain = 0
KSP1 241200Z 22000KT 15/14 A2984 RMK A01 T01500135  RH  095%=      5-min Rain = 0
KSP1 241205Z 20000KT 15/14 A2984 RMK A01 T01500136  RH  095%=      5-min Rain = 0
KSP1 241210Z 20001KT 15/14 A2984 RMK A01 T01500136  RH  095%=      5-min Rain = 0
KSP1 241215Z 19001KT 15/14 A2984 RMK A01 T01520138  RH  095%=      5-min Rain = 0
KSP1 241220Z 20001KT 16/14 A2984 RMK A01 T01560143  RH  095%=      5-min Rain = 0
KSP1 241225Z 26001KT 16/14 A2984 RMK A01 T01560141  RH  094%=      5-min Rain = 0
KSP1 241230Z 28002KT 16/14 A2985 RMK A01 T01580140  RH  093%=      5-min Rain = 0
KSP1 241235Z 28002KT 16/14 A2985 RMK A01 T01620140  RH  091%=      5-min Rain = 0
KSP1 241240Z 28002KT 17/14 A2985 RMK A01 T01670141  RH  088%=      5-min Rain = 0
KSP1 241245Z 28001KT 17/14 A2985 RMK A01 T01710142  RH  087%=      5-min Rain = 0
KSP1 241250Z 26002KT 18/14 A2985 RMK A01 T01750142  RH  085%=      5-min Rain = 0
KSP1 241255Z 24002KT 18/14 A2985 RMK A01 T01780141  RH  082%=      5-min Rain = 0
KSP1 241300Z 23002KT 18/14 A2985 RMK A01 T01810142  RH  081%=      5-min Rain = 0
KSP1 241305Z 22003KT 18/14 A2985 RMK A01 T01830143  RH  081%=      5-min Rain = 0
KSP1 241310Z 20004KT 19/15 A2985 RMK A01 T01850145  RH  081%=      5-min Rain = 0
KSP1 241315Z 20005KT 19/15 A2985 RMK A01 T01880145  RH  080%=      5-min Rain = 0
KSP1 241320Z 20006KT 19/14 A2985 RMK A01 T01910144  RH  078%=      5-min Rain = 0
KSP1 241325Z 20005KT 19/15 A2985 RMK A01 T01930146  RH  077%=      5-min Rain = 0
KSP1 241330Z 19005KT 20/15 A2985 RMK A01 T01950147  RH  077%=      5-min Rain = 0
KSP1 241335Z 18004KT 20/15 A2985 RMK A01 T01980151  RH  078%=      5-min Rain = 0
KSP1 241340Z 18006KT 20/15 A2985 RMK A01 T02020147  RH  074%=      5-min Rain = 0
KSP1 241345Z 18005KT 21/15 A2985 RMK A01 T02060147  RH  072%=      5-min Rain = 0
KSP1 241350Z 17006KT 21/15 A2985 RMK A01 T02100145  RH  069%=      5-min Rain = 0
KSP1 241355Z 18006KT 21/14 A2985 RMK A01 T02120144  RH  068%=      5-min Rain = 0
KSP1 241400Z 18006KT 21/15 A2985 RMK A01 T02140145  RH  068%=      5-min Rain = 0
KSP1 241405Z 18007KT 22/14 A2985 RMK A01 T02160144  RH  067%=      5-min Rain = 0
KSP1 241410Z 18009KT 22/14 A2985 RMK A01 T02160143  RH  066%=      5-min Rain = 0
KSP1 241415Z 17007KT 22/15 A2985 RMK A01 T02180146  RH  067%=      5-min Rain = 0
KSP1 241420Z 17009G14KT 22/15 A2984 RMK A01 T02200145  RH  065%=      5-min Rain = 0
KSP1 241425Z 18009KT 22/15 A2984 RMK A01 T02210146  RH  065%=      5-min Rain = 0
KSP1 241430Z 19008KT 22/15 A2984 RMK A01 T02220147  RH  065%=      5-min Rain = 0
KSP1 241435Z 19011G16KT 22/15 A2984 RMK A01 T02230146  RH  064%=      5-min Rain = 0
KSP1 241440Z 18010G15KT 22/15 A2984 RMK A01 T02240148  RH  065%=      5-min Rain = 0
KSP1 241445Z 19011KT 23/15 A2983 RMK A01 T02260150  RH  065%=      5-min Rain = 0
KSP1 241450Z 19010KT 23/15 A2983 RMK A01 T02270150  RH  065%=      5-min Rain = 0
KSP1 241455Z 19010KT 23/15 A2984 RMK A01 T02290151  RH  064%=      5-min Rain = 0
KSP1 241500Z 20011KT 23/15 A2984 RMK A01 T02310152  RH  064%=      5-min Rain = 0
KSP1 241505Z 19010KT 23/15 A2984 RMK A01 T02320152  RH  063%=      5-min Rain = 0
KSP1 241510Z 18009G16KT 24/15 A2984 RMK A01 T02350154  RH  063%=      5-min Rain = 0
KSP1 241515Z 20008KT 24/16 A2984 RMK A01 T02370156  RH  063%=      5-min Rain = 0
KSP1 241520Z 18008KT 24/16 A2984 RMK A01 T02410156  RH  062%=      5-min Rain = 0
KSP1 241525Z 18009G14KT 24/16 A2984 RMK A01 T02440158  RH  062%=      5-min Rain = 0
KSP1 241530Z 19010G15KT 24/16 A2984 RMK A01 T02440155  RH  060%=      5-min Rain = 0
KSP1 241535Z 20011KT 25/15 A2983 RMK A01 T02460154  RH  059%=      5-min Rain = 0
KSP1 241540Z 19013G19KT 25/16 A2983 RMK A01 T02490156  RH  059%=      5-min Rain = 0
KSP1 241545Z 19013G19KT 25/16 A2983 RMK A01 T02530159  RH  059%=      5-min Rain = 0
KSP1 241550Z 19013G18KT 25/16 A2983 RMK A01 T02540162  RH  059%=      5-min Rain = 0
KSP1 241555Z 19014G19KT 26/16 A2983 RMK A01 T02560162  RH  059%=      5-min Rain = 0
KSP1 241600Z 18013G19KT 26/16 A2983 RMK A01 T02570163  RH  059%=      5-min Rain = 0
KSP1 241605Z 19012G18KT 26/17 A2983 RMK A01 T02610168  RH  059%=      5-min Rain = 0
KSP1 241610Z 19012G18KT 26/17 A2982 RMK A01 T02640169  RH  059%=      5-min Rain = 0
KSP1 241615Z 19014G21KT 26/17 A2982 RMK A01 T02630168  RH  059%=      5-min Rain = 0
KSP1 241620Z 19014G23KT 26/17 A2982 RMK A01 T02630168  RH  059%=      5-min Rain = 0
KSP1 241625Z 18013G20KT 26/17 A2982 RMK A01 T02640168  RH  059%=      5-min Rain = 0
KSP1 241630Z 19013G18KT 26/17 A2982 RMK A01 T02630168  RH  059%=      5-min Rain = 0
KSP1 241635Z 19012G18KT 27/17 A2982 RMK A01 T02650171  RH  059%=      5-min Rain = 0
KSP1 241640Z 19014G20KT 27/17 A2982 RMK A01 T02660170  RH  058%=      5-min Rain = 0
KSP1 241645Z 19013G19KT 27/17 A2982 RMK A01 T02690172  RH  058%=      5-min Rain = 0
KSP1 241650Z 19012G17KT 27/17 A2981 RMK A01 T02680172  RH  058%=      5-min Rain = 0
KSP1 241655Z 19013G18KT 27/17 A2981 RMK A01 T02720173  RH  058%=      5-min Rain = 0
KSP1 241700Z 19016G22KT 27/17 A2981 RMK A01 T02710171  RH  057%=      5-min Rain = 0
KSP1 241705Z 19016G24KT 27/17 A2981 RMK A01 T02710171  RH  057%=      5-min Rain = 0
KSP1 241710Z 18015G20KT 27/17 A2981 RMK A01 T02730172  RH  057%=      5-min Rain = 0
KSP1 241715Z 19013G19KT 28/18 A298 RMK A01 T02760175  RH  057%=      5-min Rain = 0
KSP1 241720Z 19014G22KT 28/18 A298 RMK A01 T02780175  RH  056%=      5-min Rain = 0
KSP1 241725Z 18015G22KT 28/17 A298 RMK A01 T02770174  RH  056%=      5-min Rain = 0
KSP1 241730Z 18013G22KT 28/18 A298 RMK A01 T02790176  RH  056%=      5-min Rain = 0
KSP1 241735Z 18015G20KT 28/18 A298 RMK A01 T02800176  RH  056%=      5-min Rain = 0
KSP1 241740Z 17014G20KT 28/18 A298 RMK A01 T02800175  RH  055%=      5-min Rain = 0
KSP1 241745Z 18012G21KT 28/18 A298 RMK A01 T02770177  RH  057%=      5-min Rain = 0
KSP1 241750Z 20014KT 28/18 A298 RMK A01 T02840179  RH  056%=      5-min Rain = 0
KSP1 241755Z 20014G19KT 28/18 A298 RMK A01 T02820177  RH  056%=      5-min Rain = 0
KSP1 241800Z 20014G20KT 29/18 A298 RMK A01 T02860178  RH  055%=      5-min Rain = 0
KSP1 241805Z 21014G22KT 29/18 A2979 RMK A01 T02850179  RH  055%=      5-min Rain = 0
KSP1 241810Z 21016G21KT 28/18 A2979 RMK A01 T02840176  RH  055%=      5-min Rain = 0
KSP1 241815Z 20014G19KT 28/18 A2979 RMK A01 T02840180  RH  056%=      5-min Rain = 0
KSP1 241820Z 20014G19KT 28/18 A2979 RMK A01 T02840177  RH  055%=      5-min Rain = 0
KSP1 241825Z 19013G19KT 29/18 A2979 RMK A01 T02860179  RH  055%=      5-min Rain = 0
KSP1 241830Z 21013KT 29/18 A2979 RMK A01 T02880179  RH  054%=      5-min Rain = 0
KSP1 241835Z 20013G19KT 29/18 A2979 RMK A01 T02900178  RH  054%=      5-min Rain = 0
KSP1 241840Z 20013KT 29/18 A2979 RMK A01 T02890178  RH  054%=      5-min Rain = 0
KSP1 241845Z 20011KT 29/18 A2978 RMK A01 T02890181  RH  055%=      5-min Rain = 0
KSP1 241850Z 20010G16KT 29/18 A2978 RMK A01 T02900179  RH  054%=      5-min Rain = 0
KSP1 241855Z 22013KT 29/18 A2978 RMK A01 T02880180  RH  055%=      5-min Rain = 0
KSP1 241900Z 19011G16KT 29/18 A2978 RMK A01 T02880180  RH  055%=      5-min Rain = 0
KSP1 241905Z 20015KT 29/18 A2977 RMK A01 T02930177  RH  052%=      5-min Rain = 0
KSP1 241910Z 20012G18KT 29/18 A2977 RMK A01 T02920179  RH  053%=      5-min Rain = 0
KSP1 241915Z 21011G16KT 29/18 A2977 RMK A01 T02900178  RH  054%=      5-min Rain = 0
KSP1 241920Z 20010G20KT 30/18 A2977 RMK A01 T02970184  RH  053%=      5-min Rain = 0
KSP1 241925Z 21010KT 30/18 A2977 RMK A01 T02950179  RH  053%=      5-min Rain = 0
KSP1 241930Z 21013G18KT 30/18 A2977 RMK A01 T02970180  RH  052%=      5-min Rain = 0
KSP1 241935Z 21009KT 30/18 A2977 RMK A01 T02960179  RH  052%=      5-min Rain = 0
KSP1 241940Z 22007G12KT 29/18 A2977 RMK A01 T02940182  RH  054%=      5-min Rain = 0
KSP1 241945Z 22009KT 30/18 A2976 RMK A01 T02960177  RH  052%=      5-min Rain = 0
KSP1 241950Z 19011G17KT 30/18 A2976 RMK A01 T03030184  RH  052%=      5-min Rain = 0
KSP1 241955Z 19010G16KT 30/18 A2976 RMK A01 T03010182  RH  051%=      5-min Rain = 0
KSP1 242000Z 22010KT 30/18 A2976 RMK A01 T03000180  RH  051%=      5-min Rain = 0
KSP1 242005Z 22012KT 30/18 A2975 RMK A01 T02990182  RH  052%=      5-min Rain = 0
KSP1 242010Z 21011G17KT 31/18 A2975 RMK A01 T03060183  RH  051%=      5-min Rain = 0
KSP1 242015Z 20009KT 31/18 A2975 RMK A01 T03060183  RH  050%=      5-min Rain = 0
KSP1 242020Z 20010G15KT 30/18 A2975 RMK A01 T03010179  RH  051%=      5-min Rain = 0
KSP1 242025Z 20008G14KT 30/18 A2974 RMK A01 T03010180  RH  051%=      5-min Rain = 0
KSP1 242030Z 21009G14KT 31/18 A2974 RMK A01 T03050182  RH  050%=      5-min Rain = 0
KSP1 242035Z 18009KT 31/18 A2974 RMK A01 T03080180  RH  049%=      5-min Rain = 0
KSP1 242040Z 21009KT 31/18 A2974 RMK A01 T03060177  RH  048%=      5-min Rain = 0
KSP1 242045Z 18006KT 30/18 A2973 RMK A01 T03040176  RH  049%=      5-min Rain = 0
KSP1 242050Z 21010G18KT 31/18 A2973 RMK A01 T03090177  RH  048%=      5-min Rain = 0
KSP1 242055Z 20008KT 31/18 A2973 RMK A01 T03100177  RH  048%=      5-min Rain = 0
KSP1 242100Z 19010G15KT 31/18 A2973 RMK A01 T03090175  RH  047%=      5-min Rain = 0
KSP1 242105Z 19008G13KT 31/17 A2972 RMK A01 T03060171  RH  047%=      5-min Rain = 0
KSP1 242110Z 20009KT 31/17 A2972 RMK A01 T03050173  RH  048%=      5-min Rain = 0
KSP1 242115Z 21006KT 31/18 A2972 RMK A01 T03110176  RH  047%=      5-min Rain = 0
KSP1 242120Z 19008G13KT 31/18 A2971 RMK A01 T03140177  RH  047%=      5-min Rain = 0
KSP1 242125Z 19007KT 31/18 A2971 RMK A01 T03140178  RH  047%=      5-min Rain = 0
KSP1 242130Z 14006KT 31/18 A2971 RMK A01 T03130179  RH  047%=      5-min Rain = 0
KSP1 242135Z 15006KT 31/18 A297 RMK A01 T03130177  RH  047%=      5-min Rain = 0
KSP1 242140Z 19008KT 31/17 A2969 RMK A01 T03120172  RH  045%=      5-min Rain = 0
KSP1 242145Z 16007KT 31/17 A2969 RMK A01 T03110174  RH  046%=      5-min Rain = 0
KSP1 242150Z 16006G11KT 31/17 A2968 RMK A01 T03130174  RH  046%=      5-min Rain = 0
KSP1 242155Z 16007KT 31/17 A2968 RMK A01 T03070174  RH  047%=      5-min Rain = 0
KSP1 242200Z 17006KT 31/17 A2968 RMK A01 T03070174  RH  047%=      5-min Rain = 0
KSP1 242205Z 19003KT 31/18 A2968 RMK A01 T03140177  RH  046%=      5-min Rain = 0
KSP1 242210Z 15006KT 32/17 A2968 RMK A01 T03170173  RH  045%=      5-min Rain = 0
KSP1 242215Z 14007G12KT 32/18 A2967 RMK A01 T03160175  RH  045%=      5-min Rain = 0
KSP1 242220Z 12009KT 31/17 A2967 RMK A01 T03140171  RH  044%=      5-min Rain = 0
KSP1 242225Z 12005KT 31/17 A2967 RMK A01 T03090171  RH  046%=      5-min Rain = 0
KSP1 242230Z 14008KT 31/17 A2967 RMK A01 T03110173  RH  046%=      5-min Rain = 0
KSP1 242235Z 15009G14KT 31/18 A2967 RMK A01 T03130176  RH  046%=      5-min Rain = 0
KSP1 242240Z 13007G12KT 31/17 A2966 RMK A01 T03060171  RH  047%=      5-min Rain = 0
KSP1 242245Z 14007G12KT 31/18 A2966 RMK A01 T03130175  RH  046%=      5-min Rain = 0
KSP1 242250Z 14005KT 32/17 A2966 RMK A01 T03150174  RH  045%=      5-min Rain = 0
KSP1 242255Z 14009KT 31/17 A2966 RMK A01 T03140174  RH  045%=      5-min Rain = 0
KSP1 242300Z 14007KT 31/17 A2965 RMK A01 T03080173  RH  047%=      5-min Rain = 0
KSP1 242305Z 12008KT 30/17 A2965 RMK A01 T03040169  RH  047%=      5-min Rain = 0
KSP1 242310Z 12007KT 30/17 A2965 RMK A01 T03020168  RH  047%=      5-min Rain = 0
KSP1 242315Z 13006KT 30/17 A2965 RMK A01 T03010171  RH  048%=      5-min Rain = 0
KSP1 242320Z 12007KT 30/17 A2964 RMK A01 T03010168  RH  047%=      5-min Rain = 0
KSP1 242325Z 13007KT 30/17 A2963 RMK A01 T03000170  RH  048%=      5-min Rain = 0
KSP1 242330Z 12006KT 30/17 A2963 RMK A01 T02990169  RH  048%=      5-min Rain = 0
KSP1 242335Z 12006KT 30/17 A2963 RMK A01 T02990169  RH  048%=      5-min Rain = 0
KSP1 242340Z 12007KT 30/17 A2963 RMK A01 T02970170  RH  049%=      5-min Rain = 0
KSP1 242345Z 12007G13KT 30/17 A2963 RMK A01 T02950170  RH  049%=      5-min Rain = 0
KSP1 242350Z 12006KT 29/17 A2964 RMK A01 T02940172  RH  051%=      5-min Rain = 0
KSP1 242355Z 12006KT 29/17 A2963 RMK A01 T02930174  RH  051%=      5-min Rain = 0
KSP1 250000Z 11005KT 29/18 A2963 RMK A01 T02920176  RH  052%=      5-min Rain = 0
KSP1 250005Z 10006KT 29/18 A2961 RMK A01 T02900176  RH  053%=      5-min Rain = 0
KSP1 250010Z 11006KT 29/18 A2962 RMK A01 T02900175  RH  053%=      5-min Rain = 0
KSP1 250015Z 11007KT 29/18 A2962 RMK A01 T02890175  RH  053%=      5-min Rain = 0
KSP1 250020Z 10008KT 29/18 A2961 RMK A01 T02870176  RH  054%=      5-min Rain = 0
KSP1 250025Z 09009KT 29/18 A2959 RMK A01 T02860176  RH  054%=      5-min Rain = 0
KSP1 250030Z 12008G15KT 29/18 A2961 RMK A01 T02860175  RH  054%=      5-min Rain = 0
KSP1 250035Z 21017G24KT 26/15 A2965 RMK A01 T02600151  RH  054%=      5-min Rain = 0
KSP1 250040Z 22021G28KT 22/15 A2966 RMK A01 T02170151  RH  069%=      5-min Rain = 0
KSP1 250045Z 24022G32KT 20/16 A297 RMK A01 T02010159  RH  080%=      5-min Rain = 0.01
KSP1 250050Z 25019G28KT 19/14 A2973 RMK A01 T01860144  RH  080%=      5-min Rain = 0.04
KSP1 250055Z 28017G28KT 16/13 A2978 RMK A01 T01550131  RH  089%=      5-min Rain = 0.17
KSP1 250100Z 30020G33KT 14/13 A2982 RMK A01 T01430126  RH  093%=      5-min Rain = 0.34
KSP1 250105Z 34025G33KT 14/12 A2977 RMK A01 T01360124  RH  096%=      5-min Rain = 0.26
KSP1 250110Z 35022G36KT 14/13 A2976 RMK A01 T01350125  RH  097%=      5-min Rain = 0.1
KSP1 250115Z 33019G27KT 14/13 A2976 RMK A01 T01380128  RH  098%=      5-min Rain = 0.01
KSP1 250120Z 33020G26KT 14/13 A2977 RMK A01 T01440132  RH  096%=      5-min Rain = 0.02
KSP1 250125Z 33017G24KT 14/13 A2978 RMK A01 T01430129  RH  095%=      5-min Rain = 0.01
KSP1 250130Z 33010G18KT 14/13 A2978 RMK A01 T01430129  RH  095%=      5-min Rain = 0.02
KSP1 250135Z 33006G13KT 14/13 A2978 RMK A01 T01420130  RH  096%=      5-min Rain = 0.02
KSP1 250140Z 32005G10KT 15/13 A2978 RMK A01 T01450133  RH  096%=      5-min Rain = 0.01
KSP1 250145Z 32006KT 15/14 A2979 RMK A01 T01480135  RH  096%=      5-min Rain = 0.01
KSP1 250150Z 32004KT 15/14 A298 RMK A01 T01500137  RH  096%=      5-min Rain = 0.01
KSP1 250155Z 17005G10KT 15/14 A298 RMK A01 T01510137  RH  095%=      5-min Rain = 0.01
KSP1 250200Z 13007KT 15/14 A2978 RMK A01 T01500135  RH  095%=      5-min Rain = 0.01
KSP1 250205Z 07003KT 15/14 A2978 RMK A01 T01490135  RH  095%=      5-min Rain = 0.01
KSP1 250210Z 07002KT 15/14 A2978 RMK A01 T01510137  RH  096%=      5-min Rain = 0
KSP1 250215Z 06003G8KT 15/14 A2977 RMK A01 T01540140  RH  095%=      5-min Rain = 0.01
KSP1 250220Z 24004KT 16/14 A2977 RMK A01 T01590140  RH  092%=      5-min Rain = 0.01
KSP1 250225Z 08002KT 16/14 A2976 RMK A01 T01600140  RH  092%=      5-min Rain = 0.01
KSP1 250230Z 09003KT 16/14 A2976 RMK A01 T01640144  RH  091%=      5-min Rain = 0.01
KSP1 250235Z 11003KT 17/14 A2976 RMK A01 T01660141  RH  089%=      5-min Rain = 0.02
KSP1 250240Z 09005KT 17/14 A2976 RMK A01 T01670143  RH  090%=      5-min Rain = 0.01
KSP1 250245Z 10006KT 17/14 A2975 RMK A01 T01660144  RH  090%=      5-min Rain = 0.01
KSP1 250250Z 11005KT 17/14 A2974 RMK A01 T01670144  RH  090%=      5-min Rain = 0
KSP1 250255Z 07005KT 17/15 A2973 RMK A01 T01680146  RH  091%=      5-min Rain = 0.01
KSP1 250300Z 07007KT 17/15 A2972 RMK A01 T01660146  RH  092%=      5-min Rain = 0.01
KSP1 250305Z 08009KT 17/14 A2971 RMK A01 T01650143  RH  091%=      5-min Rain = 0
KSP1 250310Z 07009KT 17/14 A297 RMK A01 T01660142  RH  090%=      5-min Rain = 0.01
KSP1 250315Z 07012KT 17/14 A2969 RMK A01 T01660142  RH  090%=      5-min Rain = 0
KSP1 250320Z 07013KT 17/14 A2967 RMK A01 T01690139  RH  086%=      5-min Rain = 0
KSP1 250325Z 07015G21KT 18/13 A2965 RMK A01 T01750134  RH  080%=      5-min Rain = 0
KSP1 250330Z 07018G25KT 18/14 A2964 RMK A01 T01750135  RH  080%=      5-min Rain = 0
KSP1 250335Z 07018G24KT 17/14 A2963 RMK A01 T01710138  RH  084%=      5-min Rain = 0
KSP1 250340Z 07019G24KT 17/14 A2963 RMK A01 T01690136  RH  084%=      5-min Rain = 0
KSP1 250345Z 07018G26KT 17/13 A2964 RMK A01 T01720133  RH  081%=      5-min Rain = 0
KSP1 250350Z 08015G27KT 17/13 A2964 RMK A01 T01730132  RH  080%=      5-min Rain = 0
KSP1 250355Z 08014G20KT 17/13 A2966 RMK A01 T01740131  RH  079%=      5-min Rain = 0
KSP1 250400Z 08013G21KT 18/13 A2967 RMK A01 T01760130  RH  078%=      5-min Rain = 0
KSP1 250405Z 09011G19KT 18/13 A2969 RMK A01 T01770129  RH  076%=      5-min Rain = 0
KSP1 250410Z 10010G16KT 18/13 A2971 RMK A01 T01790127  RH  074%=      5-min Rain = 0
KSP1 250415Z 10011G17KT 18/13 A2972 RMK A01 T01810125  RH  072%=      5-min Rain = 0
KSP1 250420Z 09009KT 18/13 A2973 RMK A01 T01810125  RH  072%=      5-min Rain = 0
KSP1 250425Z 09011G16KT 18/13 A2974 RMK A01 T01810125  RH  072%=      5-min Rain = 0
KSP1 250430Z 09011KT 18/12 A2975 RMK A01 T01820124  RH  072%=      5-min Rain = 0
KSP1 250435Z 09011G17KT 18/13 A2976 RMK A01 T01810125  RH  072%=      5-min Rain = 0
KSP1 250440Z 09012G18KT 18/13 A2976 RMK A01 T01790126  RH  074%=      5-min Rain = 0
KSP1 250445Z 10013G19KT 18/13 A2978 RMK A01 T01770129  RH  076%=      5-min Rain = 0
KSP1 250450Z 10013G20KT 17/13 A2978 RMK A01 T01740130  RH  078%=      5-min Rain = 0
KSP1 250455Z 10013G21KT 17/13 A2978 RMK A01 T01730130  RH  079%=      5-min Rain = 0

Page generated in 0.0098 seconds.